Latest Weather Observations for Thredbo Top Station

IDN60901

Issued at 10:51 am EDT Friday 9 December 2016 (issued every 10 minutes, with the page automatically refreshed every 10 minutes)

About weather observations | Map of Canberra area stations | Latest observations for Canberra area | Other Formats
Station Details ID: 071032 Name: THREDBO AWS Lat: -36.49 Lon: 148.29 Height: 1957.0 m
Data from the previous 72 hours. | See also: Recent months at Thredbo Top Station
Date/Time
EDT
Temp
°C
App
Temp
°C
Dew
Point
°C
Rel
Hum
%
Delta-T
°C
Wind Press
QNH
hPa
Press
MSL
hPa
Rain since
9am
mm
Dir  Spd
km/h
Gust
km/h
Spd
kts
Gust
kts
09/10:30am 1.0 -6.8 -0.8 88 0.7 W 30 43 16 23 - - 0.0
09/10:00am 0.7 -7.7 -0.7 90 0.6 SW 33 48 18 26 - - 0.0
09/09:43am 0.4 -7.1 -1.7 86 0.9 WSW 28 48 15 26 - - 0.0
09/09:30am 0.4 -7.4 -0.7 92 0.5 WSW 30 43 16 23 - - 0.0
09/09:01am -0.1 -8.3 -0.9 94 0.3 WSW 32 50 17 27 - - 0.0
09/09:00am -0.3 -8.5 -1.0 95 0.3 WSW 32 46 17 25 - - 32.4
09/08:30am -0.3 -8.4 -0.4 99 0.0 WSW 32 50 17 27 - - 31.4
09/08:00am -0.7 -8.1 -0.8 99 0.0 WSW 28 48 15 26 - - 30.2
09/07:31am -1.0 -9.2 -1.1 99 0.0 WSW 32 52 17 28 - - 30.0
09/07:30am -1.0 -9.2 -1.1 99 0.0 WSW 32 46 17 25 - - 30.0
09/07:00am -0.7 -7.4 -0.8 99 0.0 WSW 24 37 13 20 - - 30.0
09/06:30am -0.1 -7.8 -0.2 99 0.0 W 30 50 16 27 - - 30.0
09/06:00am 0.3 -9.1 -0.3 96 0.2 W 39 57 21 31 - - 29.8
09/05:49am 0.4 -7.6 0.3 99 0.0 W 32 50 17 27 - - 29.8
09/05:30am 0.5 -8.5 0.4 99 0.0 W 37 50 20 27 - - 29.4
09/05:00am 0.6 -7.6 0.5 99 0.0 W 33 44 18 24 - - 29.4
09/04:30am 0.7 -7.3 0.6 99 0.0 W 32 52 17 28 - - 28.6
09/04:18am 0.7 -6.5 0.6 99 0.0 W 28 46 15 25 - - 28.6
09/04:00am 0.8 -6.0 0.7 99 0.0 W 26 44 14 24 - - 28.2
09/03:37am 0.8 -6.4 0.7 99 0.0 W 28 52 15 28 - - 27.6
09/03:30am 0.8 -6.0 0.7 99 0.0 W 26 37 14 20 - - 27.4
09/03:02am 1.2 -5.9 1.1 99 0.0 WSW 28 46 15 25 - - 27.0
09/03:00am 1.1 -6.4 1.0 99 0.0 WSW 30 46 16 25 - - 27.0
09/02:43am 1.0 -6.2 0.9 99 0.0 WSW 28 46 15 25 - - 27.0
09/02:30am 1.4 -5.7 1.3 99 0.0 W 28 44 15 24 - - 26.8
09/02:13am 1.6 -6.8 1.5 99 0.0 WNW 35 56 19 30 - - 25.8
09/02:00am 1.6 -7.6 1.5 99 0.0 WNW 39 57 21 31 - - 25.0
09/01:33am 1.4 -6.5 1.3 99 0.0 WNW 32 57 17 31 - - 23.8
09/01:30am 1.6 -6.2 1.5 99 0.0 WNW 32 57 17 31 - - 23.8
09/01:00am 1.4 -8.6 1.3 99 0.0 WNW 43 61 23 33 - - 23.8
09/12:30am 1.5 -8.4 1.4 99 0.0 WNW 43 61 23 33 - - 23.6
09/12:00am 1.5 -9.0 1.4 99 0.0 WNW 46 67 25 36 - - 21.4
 
Date/Time
EDT
Temp
°C
App
Temp
°C
Dew
Point
°C
Rel
Hum
%
Delta-T
°C
Wind Press
QNH
hPa
Press
MSL
hPa
Rain since
9am
mm
Dir  Spd
km/h
Gust
km/h
Spd
kts
Gust
kts
08/11:34pm 2.5 -8.6 2.4 99 0.0 NW 50 69 27 37 - - 19.6
08/11:30pm 2.4 -9.5 2.3 99 0.0 NW 54 70 29 38 - - 19.6
08/11:00pm 2.3 -7.5 2.2 99 0.0 WNW 43 63 23 34 - - 19.6
08/10:41pm 2.4 -8.4 2.0 97 0.2 WNW 48 67 26 36 - - 19.6
08/10:30pm 2.4 -8.3 2.3 99 0.0 WNW 48 65 26 35 - - 19.6
08/10:00pm 2.5 -7.5 2.4 99 0.0 WNW 44 74 24 40 - - 19.6
08/09:56pm 2.5 -7.5 2.4 99 0.0 WNW 44 74 24 40 - - 19.6
08/09:35pm 2.6 -6.1 2.3 98 0.1 W 37 56 20 30 - - 19.6
08/09:30pm 2.6 -6.1 2.3 98 0.1 W 37 50 20 27 - - 19.6
08/09:02pm 2.7 -6.3 2.3 97 0.2 W 39 57 21 31 - - 19.6
08/09:00pm 2.7 -6.8 1.7 93 0.4 W 41 56 22 30 - - 19.6
08/08:31pm 2.8 -5.8 2.7 99 0.0 W 37 56 20 30 - - 19.6
08/08:30pm 2.8 -6.2 2.4 97 0.2 W 39 56 21 30 - - 19.6
08/08:00pm 3.3 -4.8 3.2 99 0.0 W 35 63 19 34 - - 19.6
08/07:57pm 3.4 -4.2 3.0 97 0.2 W 32 63 17 34 - - 19.6
08/07:47pm 3.5 -4.6 3.4 99 0.0 WNW 35 63 19 34 - - 19.6
08/07:31pm 3.7 -4.7 3.6 99 0.0 NW 37 57 20 31 - - 19.6
08/07:30pm 3.8 -4.6 3.7 99 0.0 NW 37 54 20 29 - - 19.6
08/07:00pm 5.5 -1.6 5.4 99 0.0 NW 32 57 17 31 - - 19.2
08/06:30pm 6.7 -2.4 6.6 99 0.1 NW 44 65 24 35 - - 19.0
08/06:18pm 7.7 -0.3 7.6 99 0.1 NW 39 63 21 34 - - 19.0
08/06:17pm 8.0 0.5 7.9 99 0.1 NW 37 54 20 29 - - 19.0
08/06:00pm 8.8 -0.6 8.7 99 0.1 NNW 48 70 26 38 - - 18.4
08/05:30pm 8.7 -2.8 8.6 99 0.1 NNW 59 87 32 47 - - 17.8
08/05:00pm 8.5 -3.1 8.4 99 0.1 NNW 59 83 32 45 - - 14.2
08/04:58pm 8.5 -2.5 8.4 99 0.1 NNW 56 83 30 45 - - 14.2
08/04:55pm 8.7 -1.1 8.6 99 0.1 NNW 50 76 27 41 - - 14.0
08/04:30pm 8.6 0.9 8.5 99 0.1 NW 39 61 21 33 - - 9.8
08/04:00pm 8.5 0.0 8.4 99 0.1 NW 43 69 23 37 - - 5.2
08/03:30pm 8.6 -0.5 8.5 99 0.1 WNW 46 72 25 39 - - 1.6
08/03:24pm 8.9 -0.9 8.8 99 0.1 NW 50 89 27 48 - - 1.0
08/03:19pm 9.4 -3.7 8.5 94 0.5 NW 67 93 36 50 - - 0.4
08/03:01pm 10.8 -2.6 6.9 77 2.1 NNW 67 89 36 48 - - 0.2
08/03:00pm 10.7 -2.3 7.4 80 1.8 NNW 65 82 35 44 - - 0.2
08/02:30pm 13.3 -2.8 6.2 62 3.8 NNW 80 100 43 54 - - 0.0
08/02:00pm 13.0 -2.8 5.9 62 3.7 NNW 78 104 42 56 - - 0.0
08/01:30pm 12.8 -5.0 6.2 64 3.5 NNW 89 113 48 61 - - 0.0
08/01:00pm 11.9 -4.2 6.2 68 3.0 NNW 80 102 43 55 - - 0.0
08/12:30pm 12.2 -4.9 6.0 66 3.3 NNW 85 106 46 57 - - 0.0
08/12:00pm 12.1 -6.9 5.7 65 3.3 NW 95 117 51 63 - - 0.0
08/11:30am 11.2 -7.6 5.1 66 3.1 NNW 93 111 50 60 - - 0.0
08/11:00am 11.0 -6.8 4.2 63 3.4 NW 87 109 47 59 - - 0.0
08/10:30am 10.6 -8.1 3.4 61 3.5 NW 91 117 49 63 - - 0.0
08/10:00am 10.4 -7.0 2.5 58 3.8 NNW 83 104 45 56 - - 0.0
08/09:30am 10.3 -6.9 2.4 58 3.8 NNW 82 100 44 54 - - 0.0
08/09:00am 10.5 -7.2 0.5 50 4.6 NW 83 109 45 59 - - 0.0
08/08:30am 10.0 -7.7 0.1 50 4.5 NNW 83 102 45 55 - - 0.0
08/08:07am 10.4 -6.0 -0.1 48 4.8 NNW 76 98 41 53 - - 0.0
08/08:00am 9.7 -6.4 -0.5 49 4.6 NNW 74 91 40 49 - - 0.0
08/07:30am 9.4 -5.5 -1.0 48 4.6 NW 67 87 36 47 - - 0.0
08/07:00am 9.4 -5.3 -0.2 51 4.3 NW 67 85 36 46 - - 0.0
08/06:32am 9.2 -4.4 -0.4 51 4.3 NW 61 82 33 44 - - 0.0
08/06:30am 9.2 -4.5 -0.7 50 4.4 NW 61 78 33 42 - - 0.0
08/06:05am 9.2 -3.7 -0.4 51 4.3 NNW 57 82 31 44 - - 0.0
08/06:00am 9.1 -4.2 -0.5 51 4.3 NNW 59 72 32 39 - - 0.0
08/05:30am 9.4 -4.2 -0.2 51 4.3 NNW 61 76 33 41 - - 0.0
08/05:02am 9.1 -3.8 -0.5 51 4.3 NW 57 76 31 41 - - 0.0
08/05:00am 9.1 -4.2 -0.8 50 4.4 NNW 59 76 32 41 - - 0.0
08/04:30am 9.3 -4.0 -0.8 49 4.5 NNW 59 70 32 38 - - 0.0
08/04:00am 9.0 -4.1 -2.3 45 4.8 NNW 57 76 31 41 - - 0.0
08/03:30am 9.0 -5.1 -3.9 40 5.3 NNW 61 72 33 39 - - 0.0
08/03:00am 8.8 -4.6 -4.4 39 5.4 NNW 57 74 31 40 - - 0.0
08/02:30am 8.9 -2.8 -5.0 37 5.6 NNW 48 65 26 35 - - 0.0
08/02:00am 8.8 -4.1 -5.4 36 5.6 NNW 54 67 29 36 - - 0.0
08/01:30am 8.8 -3.3 -5.1 37 5.6 NNW 50 69 27 37 - - 0.0
08/01:01am 9.0 -1.4 -5.2 36 5.7 NW 41 65 22 35 1014.8 1007.6 0.0
08/01:00am 8.9 -1.1 -5.0 37 5.6 NW 39 54 21 29 1014.8 1007.6 0.0
08/12:33am 8.9 -2.7 -3.9 40 5.3 NNW 48 67 26 36 1014.9 1007.7 0.0
08/12:30am 9.0 -2.9 -3.5 41 5.2 NNW 50 63 27 34 1014.8 1007.6 0.0
08/12:00am 8.9 -5.3 -1.8 47 4.6 NNW 63 74 34 40 1014.7 1007.5 0.0
 
Date/Time
EDT
Temp
°C
App
Temp
°C
Dew
Point
°C
Rel
Hum
%
Delta-T
°C
Wind Press
QNH
hPa
Press
MSL
hPa
Rain since
9am
mm
Dir  Spd
km/h
Gust
km/h
Spd
kts
Gust
kts
07/11:30pm 9.3 -4.7 -2.9 42 5.2 NNW 61 74 33 40 1014.5 1007.4 0.0
07/11:00pm 9.1 -3.3 -1.0 49 4.5 NNW 54 67 29 36 1015.5 1008.4 0.0
07/10:30pm 8.9 -1.4 0.6 56 3.8 NNW 44 56 24 30 1016.2 1009.1 0.0
07/10:00pm 9.0 -0.2 1.2 58 3.6 NNW 39 50 21 27 1017.1 1010.0 0.0
07/09:30pm 8.8 1.3 1.5 60 3.4 NNW 30 39 16 21 1017.7 1010.6 0.0
07/09:00pm 8.7 0.3 1.4 60 3.4 NNW 35 41 19 22 1017.6 1010.5 0.0
07/08:30pm 8.9 0.1 1.3 59 3.5 NNW 37 46 20 25 1017.6 1010.5 0.0
07/08:00pm 9.5 1.2 2.1 60 3.5 NNW 35 44 19 24 1018.0 1011.0 0.0
07/07:30pm 9.6 1.9 2.5 61 3.4 NNW 32 46 17 25 1018.0 1011.0 0.0
07/07:00pm 10.3 3.5 3.1 61 3.5 NW 28 43 15 23 1018.2 1011.1 0.0
07/06:30pm 10.7 2.5 2.5 57 4.0 NNW 35 46 19 25 1017.9 1010.9 0.0
07/06:00pm 11.2 3.0 2.5 55 4.2 NNW 35 50 19 27 1018.2 1011.1 0.0
07/05:30pm 11.5 3.9 4.0 60 3.8 NNW 33 46 18 25 1018.3 1011.3 0.0
07/05:00pm 11.4 4.6 3.2 57 4.0 NW 28 41 15 22 1018.7 1011.6 0.0
07/04:30pm 11.4 4.6 2.9 56 4.2 NNW 28 43 15 23 1018.5 1011.5 0.0
07/04:05pm 11.4 4.2 2.9 56 4.2 NW 30 48 16 26 1019.0 1012.0 0.0
07/04:00pm 11.0 3.4 3.1 58 3.9 NNW 32 48 17 26 1018.7 1011.6 0.0
07/03:30pm 11.1 4.4 3.4 59 3.8 NW 28 48 15 26 1018.7 1011.6 0.0
07/03:00pm 11.1 4.4 3.6 60 3.7 NW 28 46 15 25 1018.8 1011.8 0.0
07/02:30pm 10.6 3.7 2.7 58 3.8 NW 28 46 15 25 1018.8 1011.8 0.0
07/02:16pm 11.4 4.4 3.9 60 3.8 NW 30 50 16 27 1019.1 1012.1 0.0
07/02:00pm 10.9 3.6 2.7 57 4.0 NW 30 46 16 25 1019.3 1012.3 0.0
07/01:56pm 10.9 3.9 2.0 54 4.3 NW 28 46 15 25 1019.0 1012.0 0.0
07/01:30pm 11.1 4.2 2.4 55 4.2 NW 28 41 15 22 1019.3 1012.3 0.0
07/01:00pm 10.7 3.3 1.8 54 4.2 NW 30 44 16 24 1019.0 1012.0 0.0
07/12:30pm 10.4 3.0 1.8 55 4.1 NW 30 39 16 21 1019.4 1012.4 0.0
07/12:00pm 10.2 2.9 4.6 68 2.8 NNW 32 44 17 24 1019.4 1012.4 0.0
07/11:30am 10.7 2.7 1.5 53 4.3 WNW 33 46 18 25 1019.4 1012.4 0.0
07/11:00am 10.4 1.9 1.0 52 4.4 NW 35 46 19 25 1019.0 1012.0 0.0
07/10:30am 10.9 2.4 -2.1 40 5.7 NW 33 44 18 24 1018.8 1011.8 0.0
07/10:00am 10.9 2.5 -5.5 31 6.6 WNW 30 44 16 24 1018.7 1011.6 0.0
07/09:30am 8.9 1.6 0.1 54 4.0 NW 28 41 15 22 1018.8 1011.8 0.0
07/09:00am 8.1 -0.4 1.0 61 3.2 NW 35 48 19 26 1018.7 1011.6 0.2
07/08:30am 7.3 -0.5 2.0 69 2.5 NW 32 41 17 22 1018.5 1011.5 0.2
07/08:00am 6.6 -0.2 2.9 77 1.7 WNW 28 41 15 22 1018.5 1011.5 0.2
07/07:30am 6.1 0.0 2.6 78 1.6 WNW 24 32 13 17 1018.3 1011.3 0.2
07/07:00am 5.3 -1.2 2.7 83 1.2 WNW 26 39 14 21 1017.9 1010.9 0.2
07/06:30am 4.4 -1.8 2.4 87 0.9 WNW 24 33 13 18 1017.4 1010.4 0.2
07/06:00am 4.0 -2.2 2.0 87 0.9 WNW 24 33 13 18 1017.3 1010.3 0.2
07/05:30am 4.3 -2.3 2.2 86 1.0 W 26 39 14 21 1017.0 1009.9 0.2
07/05:00am 3.5 -2.3 2.5 93 0.5 WNW 22 33 12 18 1016.6 1009.5 0.2
07/04:30am 4.0 -3.3 2.4 89 0.7 NW 30 35 16 19 1016.1 1009.0 0.2
07/04:00am 4.0 -3.9 0.9 80 1.4 NW 32 39 17 21 1016.1 1009.0 0.2
07/03:30am 4.0 -3.3 0.3 77 1.6 NW 28 37 15 20 1016.0 1008.9 0.2
07/03:00am 4.4 -3.4 1.6 82 1.3 NW 32 39 17 21 1016.4 1009.2 0.2
07/02:30am 4.2 -2.8 2.1 86 1.0 NW 28 35 15 19 1016.6 1009.5 0.2
07/02:00am 5.0 -2.9 2.0 81 1.4 NNW 33 39 18 21 1016.6 1009.5 0.2
07/01:30am 4.9 -3.4 2.3 83 1.2 NW 35 43 19 23 1017.1 1010.0 0.2
07/01:00am 5.1 -4.1 3.3 88 0.8 NNW 41 46 22 25 1017.2 1010.1 0.2
07/12:30am 5.3 -4.0 3.0 85 1.1 NNW 41 50 22 27 1017.1 1010.0 0.2
07/12:00am 5.7 -3.2 2.9 82 1.3 NNW 39 46 21 25 1017.6 1010.5 0.2
 
Date/Time
EDT
Temp
°C
App
Temp
°C
Dew
Point
°C
Rel
Hum
%
Delta-T
°C
Wind Press
QNH
hPa
Press
MSL
hPa
Rain since
9am
mm
Dir  Spd
km/h
Gust
km/h
Spd
kts
Gust
kts
06/11:30pm 6.0 -1.8 2.6 79 1.6 NW 33 39 18 21 1018.2 1011.1 0.2
06/11:00pm 6.1 -1.4 3.3 82 1.3 NNW 32 37 17 20 1018.3 1011.3 0.2
06/10:30pm 6.2 -2.6 3.4 82 1.3 NNW 39 48 21 26 1018.0 1011.0 0.2
06/10:00pm 6.4 -2.8 3.4 81 1.4 NNW 41 48 22 26 1017.7 1010.6 0.2
06/09:30pm 6.1 -3.4 3.8 85 1.1 NNW 43 50 23 27 1017.0 1009.9 0.2
06/09:00pm 6.1 -4.0 3.9 86 1.1 NNW 46 54 25 29 1016.5 1009.4 0.2
06/08:30pm 6.5 -3.5 4.2 85 1.1 NNW 46 54 25 29 1016.5 1009.4 0.2
06/08:00pm 6.7 -1.9 4.7 87 1.0 NNW 39 48 21 26 1016.8 1009.7 0.2
06/07:30pm 7.1 -1.5 4.8 85 1.1 NNW 39 54 21 29 1016.6 1009.5 0.2
06/07:00pm 7.4 0.6 5.2 86 1.1 NW 30 43 16 23 1016.6 1009.5 0.2
06/06:30pm 7.8 0.6 5.8 87 1.0 NW 33 43 18 23 1016.4 1009.2 0.2
06/06:04pm 8.4 -0.2 4.4 76 2.0 NNW 39 57 21 31 1016.0 1008.9 0.2
06/06:00pm 8.3 -1.1 4.7 78 1.8 NNW 43 57 23 31 1015.7 1008.6 0.2
06/05:30pm 8.4 -1.9 4.8 78 1.8 NNW 48 59 26 32 1015.4 1008.2 0.2
06/05:11pm 9.0 0.8 4.8 75 2.1 NW 37 57 20 31 1015.7 1008.6 0.2
06/05:00pm 9.5 1.7 4.7 72 2.4 NW 35 52 19 28 1015.5 1008.4 0.2
06/04:30pm 10.1 1.0 7.0 81 1.6 NW 44 74 24 40 1015.3 1008.1 0.2
06/04:01pm 10.5 1.9 6.6 77 2.1 NW 41 59 22 32 1015.3 1008.1 0.2
06/04:00pm 9.9 0.9 6.4 79 1.8 NW 43 59 23 32 1015.1 1008.0 0.2
06/03:30pm 9.6 -0.9 5.8 77 2.0 NW 50 69 27 37 1014.5 1007.4 0.2
06/03:00pm 9.1 -2.3 4.9 75 2.1 NW 54 72 29 39 1014.8 1007.6 0.2
06/02:31pm 9.5 -1.7 5.7 77 1.9 NW 54 74 29 40 1014.4 1007.2 0.2
06/02:30pm 9.5 -1.7 6.0 79 1.8 NW 54 70 29 38 1014.4 1007.2 0.2
06/02:00pm 10.5 1.2 7.7 83 1.5 NW 46 67 25 36 1015.4 1008.2 0.2
06/01:40pm 10.4 0.3 7.6 83 1.5 NW 50 69 27 37 1015.3 1008.1 0.2
06/01:30pm 10.0 -1.0 6.9 81 1.6 NNW 54 69 29 37 1014.7 1007.5 0.2
06/01:00pm 10.3 -0.6 7.2 81 1.6 NW 54 72 29 39 1015.1 1008.0 0.2
06/12:30pm 10.5 -0.5 7.0 79 1.9 NW 54 74 29 40 1015.3 1008.1 0.2
06/12:02pm 10.0 -0.6 7.1 82 1.5 NW 52 76 28 41 1015.5 1008.4 0.2
06/12:00pm 10.3 0.1 7.0 80 1.7 NW 50 67 27 36 1015.5 1008.4 0.2
06/11:30am 9.8 -0.3 7.4 85 1.3 NW 50 72 27 39 1015.9 1008.7 0.2
06/11:00am 9.1 -2.3 6.9 86 1.2 NW 56 76 30 41 1016.2 1009.1 0.2

Latest Capital City Observations: Canberra | Sydney | Melbourne | Brisbane | Adelaide | Perth | Hobart | Darwin

Other Formats:

Comma delimited format used in spreadsheet applications
http://www.bom.gov.au/fwo/IDN60903/IDN60903.95909.axf

JavaScript Object Notation format (JSON) in row-major order
http://www.bom.gov.au/fwo/IDN60903/IDN60903.95909.json